Time;durP1;ratioP1;P1;durP2;ratioP2;P2;SDS_P1;SDS_P2;PMS_P1;PMS_P2;Temp;Humidity;BMP_temperature;BMP_pressure;BME280_temperature;BME280_humidity;BME280_pressure;Samples;Min_cycle;Max_cycle;Signal;HPM_P1;HPM_P2
2021/06/13 00:02:46;;;;;;;8.73;2.80;;;;;;;;;;10284790;28;20029;-65
2021/06/13 00:07:43;;;;;;;14.40;3.30;;;;;;;;;;10297827;28;20376;-66
2021/06/13 00:12:41;;;;;;;7.40;2.43;;;;;;;;;;10289642;28;20026;-65
2021/06/13 00:17:39;;;;;;;3.50;1.73;;;;;;;;;;10301796;28;20492;-66
2021/06/13 00:22:36;;;;;;;7.18;2.75;;;;;;;;;;10335106;28;20048;-65
2021/06/13 00:27:34;;;;;;;14.43;3.03;;;;;;;;;;10326078;28;20491;-65
2021/06/13 00:32:31;;;;;;;10.00;3.13;;;;;;;;;;10332178;28;20045;-66
2021/06/13 00:37:30;;;;;;;5.33;2.80;;;;;;;;;;10334517;28;20031;-66
2021/06/13 00:42:27;;;;;;;9.52;3.33;;;;;;;;;;10311828;28;20048;-65
2021/06/13 00:47:24;;;;;;;10.30;3.07;;;;;;;;;;10315196;28;20037;-65
2021/06/13 00:52:25;;;;;;;10.50;3.27;;;;;;;;;;10297533;28;20121;-65
2021/06/13 00:57:25;;;;;;;7.20;2.33;;;;;;;;;;10269660;28;20516;-65
2021/06/13 01:02:23;;;;;;;7.93;2.77;;;;;;;;;;10327229;28;20399;-65
2021/06/13 01:07:35;;;;;;;7.73;2.53;;;;;;;;;;10332796;28;20109;-66
2021/06/13 01:13:06;;;;;;;7.38;2.92;;;;;;;;;;10311872;28;20128;-65
2021/06/13 01:18:19;;;;;;;9.35;3.17;;;;;;;;;;10299061;28;20102;-65
2021/06/13 01:23:23;;;;;;;9.82;3.10;;;;;;;;;;10324934;28;20037;-65
2021/06/13 01:28:41;;;;;;;11.35;2.75;;;;;;;;;;10318990;28;20044;-65
2021/06/13 01:33:39;;;;;;;9.80;3.70;;;;;;;;;;10300328;28;20530;-65
2021/06/13 01:38:37;;;;;;;;;;;;;;;;;;10295076;28;20033;-63
2021/06/13 01:43:35;;;;;;;12.90;3.60;;;;;;;;;;10297601;28;20375;-63
2021/06/13 01:48:34;;;;;;;8.70;2.17;;;;;;;;;;10270473;28;20396;-64
2021/06/13 01:53:41;;;;;;;10.43;2.45;;;;;;;;;;10274534;28;20029;-64
2021/06/13 01:58:40;;;;;;;;;;;;;;;;;;10295118;28;20057;-64
2021/06/13 02:03:50;;;;;;;11.27;3.20;;;;;;;;;;10331272;28;20193;-64
2021/06/13 02:09:11;;;;;;;6.40;2.22;;;;;;;;;;10318241;28;20055;-64
2021/06/13 02:14:10;;;;;;;10.05;2.92;;;;;;;;;;10273865;28;20025;-64
2021/06/13 02:19:15;;;;;;;10.73;3.10;;;;;;;;;;10271573;28;20051;-63
2021/06/13 02:24:16;;;;;;;8.88;2.70;;;;;;;;;;10263305;28;20029;-64
2021/06/13 02:29:14;;;;;;;12.05;3.47;;;;;;;;;;10288807;28;20035;-64
2021/06/13 02:34:14;;;;;;;9.98;3.33;;;;;;;;;;10284462;28;20036;-63
2021/06/13 02:39:13;;;;;;;11.80;4.10;;;;;;;;;;10288883;28;20042;-64
2021/06/13 02:44:10;;;;;;;8.73;2.23;;;;;;;;;;10292071;28;20049;-64
2021/06/13 02:49:10;;;;;;;10.52;3.33;;;;;;;;;;10276644;28;20591;-64
2021/06/13 02:54:09;;;;;;;8.70;3.00;;;;;;;;;;10262944;28;20408;-64
2021/06/13 02:59:21;;;;;;;10.23;3.80;;;;;;;;;;10286866;28;20124;-64
2021/06/13 03:04:19;;;;;;;14.43;3.17;;;;;;;;;;10300183;28;20272;-64
2021/06/13 03:09:17;;;;;;;5.95;2.63;;;;;;;;;;10283251;28;20037;-63
2021/06/13 03:14:15;;;;;;;8.65;2.70;;;;;;;;;;10319637;28;20426;-64
2021/06/13 03:19:17;;;;;;;11.23;3.22;;;;;;;;;;10316398;28;20060;-64
2021/06/13 03:24:15;;;;;;;10.18;3.22;;;;;;;;;;10299714;28;20487;-64
2021/06/13 03:29:13;;;;;;;;;;;;;;;;;;10300086;28;20033;-64
2021/06/13 03:34:13;;;;;;;8.52;2.97;;;;;;;;;;10261020;28;20379;-64
2021/06/13 03:39:12;;;;;;;6.80;2.97;;;;;;;;;;10278771;28;20379;-64
2021/06/13 03:44:11;;;;;;;10.82;3.15;;;;;;;;;;10336170;28;20517;-64
2021/06/13 03:49:12;;;;;;;8.13;3.20;;;;;;;;;;10301749;28;20446;-64
2021/06/13 03:54:10;;;;;;;9.77;2.72;;;;;;;;;;10296435;28;20037;-65
2021/06/13 03:59:09;;;;;;;8.73;3.40;;;;;;;;;;10299766;28;20096;-64
2021/06/13 04:04:07;;;;;;;9.18;3.15;;;;;;;;;;10299640;28;20034;-65
2021/06/13 04:09:04;;;;;;;10.18;2.97;;;;;;;;;;10278943;28;20042;-64
2021/06/13 04:14:06;;;;;;;6.30;2.10;;;;;;;;;;10314613;28;20046;-64
2021/06/13 04:19:03;;;;;;;9.57;2.45;;;;;;;;;;10281469;28;20179;-64
2021/06/13 04:24:01;;;;;;;10.13;3.30;;;;;;;;;;10299242;28;20119;-64
2021/06/13 04:28:59;;;;;;;12.15;3.45;;;;;;;;;;10281392;28;20041;-64
2021/06/13 04:33:58;;;;;;;12.65;3.60;;;;;;;;;;10299946;28;20107;-64
2021/06/13 04:38:56;;;;;;;10.32;2.83;;;;;;;;;;10297693;28;20033;-64
2021/06/13 04:43:53;;;;;;;10.83;3.50;;;;;;;;;;10311648;28;20040;-64
2021/06/13 04:48:50;;;;;;;10.90;4.43;;;;;;;;;;10305313;28;20041;-64
2021/06/13 04:53:51;;;;;;;12.30;3.93;;;;;;;;;;10321079;28;20109;-64
2021/06/13 04:58:49;;;;;;;8.85;3.28;;;;;;;;;;10319047;28;20217;-64
2021/06/13 05:03:47;;;;;;;6.83;3.67;;;;;;;;;;10304552;28;20026;-64
2021/06/13 05:08:44;;;;;;;10.60;4.07;;;;;;;;;;10303742;28;20041;-64
2021/06/13 05:13:42;;;;;;;9.80;3.30;;;;;;;;;;10319895;28;20487;-64
2021/06/13 05:18:40;;;;;;;10.10;3.92;;;;;;;;;;10305088;28;20526;-64
2021/06/13 05:23:37;;;;;;;10.90;4.53;;;;;;;;;;10303763;28;20373;-64
2021/06/13 05:28:34;;;;;;;13.03;3.97;;;;;;;;;;10257077;28;20041;-64
2021/06/13 05:33:32;;;;;;;10.87;4.57;;;;;;;;;;10302431;28;20041;-64
2021/06/13 05:38:29;;;;;;;11.53;3.67;;;;;;;;;;10284768;28;20051;-65
2021/06/13 05:43:27;;;;;;;9.13;4.03;;;;;;;;;;10273044;28;20037;-64
2021/06/13 05:48:25;;;;;;;12.50;4.17;;;;;;;;;;10284836;28;20341;-65
2021/06/13 05:53:22;;;;;;;8.13;2.80;;;;;;;;;;10279086;28;20144;-64
2021/06/13 05:58:20;;;;;;;7.77;3.97;;;;;;;;;;10283661;28;20061;-64
2021/06/13 06:03:17;;;;;;;13.43;3.80;;;;;;;;;;10262743;28;20072;-64
2021/06/13 06:08:17;;;;;;;11.27;5.07;;;;;;;;;;10283560;28;20049;-65
2021/06/13 06:13:14;;;;;;;8.80;4.10;;;;;;;;;;10282704;28;20030;-64
2021/06/13 06:18:11;;;;;;;9.90;3.50;;;;;;;;;;10288808;28;20042;-65
2021/06/13 06:23:09;;;;;;;9.90;4.03;;;;;;;;;;10277753;28;20589;-65
2021/06/13 06:28:06;;;;;;;6.33;3.33;;;;;;;;;;10298238;28;20033;-65
2021/06/13 06:33:04;;;;;;;7.07;2.43;;;;;;;;;;10299656;28;20099;-65
2021/06/13 06:38:02;;;;;;;9.87;3.63;;;;;;;;;;10261193;28;20075;-65
2021/06/13 06:42:59;;;;;;;6.03;2.87;;;;;;;;;;10279914;28;20069;-65
2021/06/13 06:47:57;;;;;;;11.20;4.03;;;;;;;;;;10288304;28;20056;-65
2021/06/13 06:52:54;;;;;;;8.93;3.77;;;;;;;;;;10281622;28;20052;-65
2021/06/13 06:57:52;;;;;;;8.80;3.30;;;;;;;;;;10298898;28;20050;-65
2021/06/13 07:02:49;;;;;;;10.37;3.80;;;;;;;;;;10301741;28;20111;-65
2021/06/13 07:07:47;;;;;;;10.30;3.37;;;;;;;;;;10285017;28;20204;-65
2021/06/13 07:12:45;;;;;;;10.27;4.00;;;;;;;;;;10281255;28;20045;-65
2021/06/13 07:17:42;;;;;;;8.93;3.70;;;;;;;;;;10282951;28;20158;-65
2021/06/13 07:22:40;;;;;;;10.27;4.20;;;;;;;;;;10278684;28;20053;-65
2021/06/13 07:27:38;;;;;;;12.07;3.67;;;;;;;;;;10279190;28;20042;-65
2021/06/13 07:32:36;;;;;;;8.35;2.80;;;;;;;;;;10281623;28;20045;-65
2021/06/13 07:37:33;;;;;;;6.75;3.25;;;;;;;;;;10291693;28;20052;-65
2021/06/13 07:42:31;;;;;;;7.43;3.17;;;;;;;;;;10270297;28;20072;-65
2021/06/13 07:47:30;;;;;;;8.37;3.73;;;;;;;;;;10274713;28;20041;-65
2021/06/13 07:52:28;;;;;;;6.75;2.50;;;;;;;;;;10278681;28;20038;-66
2021/06/13 07:57:25;;;;;;;11.17;3.67;;;;;;;;;;10283425;28;20094;-65
2021/06/13 08:02:23;;;;;;;9.00;4.27;;;;;;;;;;10288841;28;20030;-65
2021/06/13 08:07:20;;;;;;;6.90;3.57;;;;;;;;;;10276306;28;20442;-65
2021/06/13 08:12:18;;;;;;;6.47;2.87;;;;;;;;;;10285450;28;20386;-66
2021/06/13 08:17:15;;;;;;;;;;;;;;;;;;10285003;28;20121;-65
2021/06/13 08:22:13;;;;;;;8.90;3.65;;;;;;;;;;10325535;28;19962;-65
2021/06/13 08:27:11;;;;;;;7.43;3.23;;;;;;;;;;10290129;28;20429;-66
2021/06/13 08:32:09;;;;;;;10.38;3.83;;;;;;;;;;10301120;28;20411;-66
2021/06/13 08:37:06;;;;;;;8.32;3.00;;;;;;;;;;10290933;28;20065;-66
2021/06/13 08:42:04;;;;;;;10.83;4.10;;;;;;;;;;10338443;28;20033;-65
2021/06/13 08:47:02;;;;;;;;;;;;;;;;;;10319397;28;20043;-66
2021/06/13 08:52:00;;;;;;;10.13;3.03;;;;;;;;;;10271831;28;19963;-66
2021/06/13 08:56:57;;;;;;;;;;;;;;;;;;10324909;28;20045;-66
2021/06/13 09:01:55;;;;;;;8.68;3.45;;;;;;;;;;10299194;28;20154;-66
2021/06/13 09:06:53;;;;;;;9.40;3.50;;;;;;;;;;10285737;28;20050;-66
2021/06/13 09:11:50;;;;;;;;;;;;;;;;;;10306099;28;20033;-65
2021/06/13 09:16:47;;;;;;;8.75;3.70;;;;;;;;;;10287650;28;20004;-66
2021/06/13 09:21:46;;;;;;;10.70;4.37;;;;;;;;;;10277899;28;20107;-66
2021/06/13 09:26:44;;;;;;;10.32;4.10;;;;;;;;;;10277548;28;20069;-66
2021/06/13 09:31:41;;;;;;;;;;;;;;;;;;10292160;28;20503;-66
2021/06/13 09:36:39;;;;;;;7.50;3.30;;;;;;;;;;10277762;28;19939;-66
2021/06/13 09:41:37;;;;;;;6.63;3.10;;;;;;;;;;10305797;28;20083;-66
2021/06/13 09:46:36;;;;;;;8.60;3.97;;;;;;;;;;10282148;28;20267;-66
2021/06/13 09:51:35;;;;;;;7.68;3.55;;;;;;;;;;10314872;28;20021;-66
2021/06/13 09:56:33;;;;;;;5.72;3.67;;;;;;;;;;10272714;28;20064;-66
2021/06/13 10:01:35;;;;;;;3.78;2.20;;;;;;;;;;10297563;28;20036;-66
2021/06/13 10:06:34;;;;;;;7.97;3.60;;;;;;;;;;10303218;28;20068;-66
2021/06/13 10:11:36;;;;;;;9.73;4.22;;;;;;;;;;10285887;28;20076;-66
2021/06/13 10:16:43;;;;;;;8.85;4.35;;;;;;;;;;10335537;28;20029;-66
2021/06/13 10:22:01;;;;;;;7.20;3.70;;;;;;;;;;10341953;28;20108;-66
2021/06/13 10:27:00;;;;;;;9.23;4.57;;;;;;;;;;10337251;28;20287;-66
2021/06/13 10:31:58;;;;;;;9.57;4.38;;;;;;;;;;10296071;28;20264;-66
2021/06/13 10:36:57;;;;;;;9.40;4.38;;;;;;;;;;10275094;28;20057;-66
2021/06/13 10:41:55;;;;;;;11.65;4.28;;;;;;;;;;10287545;28;20029;-66
2021/06/13 10:46:54;;;;;;;8.88;4.53;;;;;;;;;;10277114;28;20046;-66
2021/06/13 10:52:03;;;;;;;12.45;4.47;;;;;;;;;;10311653;28;20045;-66
2021/06/13 10:57:03;;;;;;;9.82;3.85;;;;;;;;;;10277952;28;20395;-66
2021/06/13 11:02:11;;;;;;;9.13;4.18;;;;;;;;;;10297922;28;20084;-66
2021/06/13 11:07:09;;;;;;;9.73;4.00;;;;;;;;;;10291712;28;20029;-66
2021/06/13 11:12:26;;;;;;;7.65;3.95;;;;;;;;;;10273891;28;20056;-66
2021/06/13 11:17:44;;;;;;;6.60;3.67;;;;;;;;;;10281863;28;20051;-66
2021/06/13 11:22:41;;;;;;;7.78;3.60;;;;;;;;;;10292579;28;20077;-66
2021/06/13 11:27:57;;;;;;;8.77;3.63;;;;;;;;;;10287783;28;20076;-66
2021/06/13 11:32:56;;;;;;;7.18;3.58;;;;;;;;;;10285709;28;20119;-66
2021/06/13 11:38:09;;;;;;;10.30;4.68;;;;;;;;;;10267383;28;20140;-66
2021/06/13 11:43:09;;;;;;;9.77;4.15;;;;;;;;;;10311517;28;20431;-66
2021/06/13 11:48:16;;;;;;;8.38;3.92;;;;;;;;;;10337102;28;20076;-66
2021/06/13 11:53:14;;;;;;;7.97;3.67;;;;;;;;;;10333051;28;20194;-66
2021/06/13 11:58:12;;;;;;;7.38;3.80;;;;;;;;;;10339354;28;20262;-66
2021/06/13 12:03:10;;;;;;;8.70;3.63;;;;;;;;;;10344891;28;20025;-67
2021/06/13 12:08:08;;;;;;;8.15;4.10;;;;;;;;;;10310946;28;20036;-67
2021/06/13 12:13:07;;;;;;;9.10;4.10;;;;;;;;;;10275942;28;20496;-66
2021/06/13 12:18:13;;;;;;;8.27;4.40;;;;;;;;;;10292734;28;20041;-66
2021/06/13 12:23:17;;;;;;;13.85;3.80;;;;;;;;;;10277482;28;20038;-66
2021/06/13 12:28:14;;;;;;;7.75;3.22;;;;;;;;;;10291271;28;20032;-66
2021/06/13 12:33:13;;;;;;;8.95;3.85;;;;;;;;;;10292854;28;20048;-66
2021/06/13 12:38:11;;;;;;;6.25;3.65;;;;;;;;;;10289205;28;20094;-67
2021/06/13 12:43:10;;;;;;;7.47;3.63;;;;;;;;;;10281785;28;20128;-67
2021/06/13 12:48:08;;;;;;;8.90;3.58;;;;;;;;;;10288816;28;20065;-67
2021/06/13 12:53:07;;;;;;;6.68;3.58;;;;;;;;;;10277587;28;20029;-67
2021/06/13 12:58:11;;;;;;;6.90;3.30;;;;;;;;;;10260877;28;20514;-67
2021/06/13 13:03:09;;;;;;;6.68;3.58;;;;;;;;;;10277770;28;20021;-67
2021/06/13 13:08:10;;;;;;;5.38;3.30;;;;;;;;;;10281926;28;20022;-67
2021/06/13 13:13:08;;;;;;;6.25;3.03;;;;;;;;;;10315641;28;20034;-67
2021/06/13 13:18:13;;;;;;;5.20;3.05;;;;;;;;;;10296585;28;20037;-67
2021/06/13 13:23:13;;;;;;;5.90;3.03;;;;;;;;;;10293493;28;20105;-67
2021/06/13 13:28:30;;;;;;;9.60;3.97;;;;;;;;;;10285139;28;20044;-67
2021/06/13 13:33:31;;;;;;;5.28;3.42;;;;;;;;;;10286611;28;20056;-67
2021/06/13 13:38:48;;;;;;;5.32;3.25;;;;;;;;;;10282773;28;20137;-67
2021/06/13 13:43:56;;;;;;;5.57;2.58;;;;;;;;;;10251117;28;20105;-67
2021/06/13 13:48:54;;;;;;;4.70;2.88;;;;;;;;;;10278723;28;20041;-67
2021/06/13 13:53:52;;;;;;;5.28;3.40;;;;;;;;;;10274679;28;20042;-67
2021/06/13 13:58:51;;;;;;;5.88;3.00;;;;;;;;;;10261568;28;20240;-67
2021/06/13 14:03:49;;;;;;;6.78;3.47;;;;;;;;;;10295936;28;20052;-67
2021/06/13 14:08:47;;;;;;;4.72;2.97;;;;;;;;;;10277473;28;20030;-67
2021/06/13 14:13:45;;;;;;;6.80;3.63;;;;;;;;;;10291048;28;20049;-67
2021/06/13 14:18:45;;;;;;;5.85;3.40;;;;;;;;;;10275845;28;20044;-67
2021/06/13 14:23:44;;;;;;;5.65;3.03;;;;;;;;;;10251873;28;20304;-67
2021/06/13 14:28:41;;;;;;;9.20;3.20;;;;;;;;;;10274983;28;20133;-67
2021/06/13 14:33:39;;;;;;;6.20;3.00;;;;;;;;;;10279112;28;20273;-68
2021/06/13 14:38:37;;;;;;;6.23;2.60;;;;;;;;;;10274794;28;20295;-68
2021/06/13 14:43:34;;;;;;;7.43;3.45;;;;;;;;;;10308063;28;20292;-67
2021/06/13 14:48:32;;;;;;;4.80;3.00;;;;;;;;;;10314935;28;20422;-68
2021/06/13 14:53:29;;;;;;;6.60;3.08;;;;;;;;;;10316063;28;20116;-67
2021/06/13 14:58:27;;;;;;;5.60;2.75;;;;;;;;;;10305245;28;20056;-68
2021/06/13 15:03:25;;;;;;;3.88;2.30;;;;;;;;;;10324738;28;20440;-68
2021/06/13 15:08:22;;;;;;;6.30;3.15;;;;;;;;;;10337703;28;20406;-66
2021/06/13 15:13:20;;;;;;;6.32;2.83;;;;;;;;;;10323932;28;20052;-67
2021/06/13 15:18:17;;;;;;;4.37;2.47;;;;;;;;;;10343440;28;20121;-67
2021/06/13 15:23:17;;;;;;;6.27;2.73;;;;;;;;;;10330061;28;20351;-67
2021/06/13 15:28:15;;;;;;;6.35;3.20;;;;;;;;;;10298404;28;20491;-67
2021/06/13 15:33:12;;;;;;;4.57;2.30;;;;;;;;;;10295448;28;20403;-67
2021/06/13 15:38:10;;;;;;;5.60;2.87;;;;;;;;;;10308584;28;20367;-67
2021/06/13 15:43:07;;;;;;;4.65;2.45;;;;;;;;;;10323547;28;20653;-67
2021/06/13 15:48:06;;;;;;;4.82;2.20;;;;;;;;;;10328170;28;20041;-67
2021/06/13 15:53:07;;;;;;;5.03;2.90;;;;;;;;;;10312370;28;20033;-68
2021/06/13 15:58:07;;;;;;;3.97;2.13;;;;;;;;;;10316903;28;20538;-66
2021/06/13 16:03:06;;;;;;;3.53;1.83;;;;;;;;;;10308688;28;20029;-67
2021/06/13 16:08:06;;;;;;;5.45;2.47;;;;;;;;;;10311694;28;20150;-67
2021/06/13 16:13:04;;;;;;;3.70;1.98;;;;;;;;;;10281629;28;20041;-67
2021/06/13 16:18:01;;;;;;;4.25;2.20;;;;;;;;;;10279496;28;20045;-68
2021/06/13 16:22:59;;;;;;;4.35;2.35;;;;;;;;;;10287273;28;20457;-67
2021/06/13 16:27:56;;;;;;;3.57;2.13;;;;;;;;;;10259516;28;20464;-68
2021/06/13 16:32:54;;;;;;;4.10;1.92;;;;;;;;;;10251526;28;20292;-67
2021/06/13 16:37:51;;;;;;;3.43;1.93;;;;;;;;;;10276670;28;20049;-67
2021/06/13 16:42:51;;;;;;;5.30;2.28;;;;;;;;;;10268749;28;20446;-67
2021/06/13 16:47:48;;;;;;;4.07;1.75;;;;;;;;;;10283363;28;20587;-67
2021/06/13 16:52:45;;;;;;;43.55;10.48;;;;;;;;;;10260505;28;20445;-67
2021/06/13 16:57:43;;;;;;;20.23;6.97;;;;;;;;;;10289110;28;20038;-67
2021/06/13 17:02:41;;;;;;;10.20;3.65;;;;;;;;;;10293009;28;20045;-67
2021/06/13 17:07:38;;;;;;;8.63;3.30;;;;;;;;;;10282076;28;20246;-67
2021/06/13 17:12:36;;;;;;;5.43;2.72;;;;;;;;;;10288035;28;20555;-67
2021/06/13 17:17:34;;;;;;;6.07;2.53;;;;;;;;;;10281493;28;20030;-67
2021/06/13 17:22:32;;;;;;;6.97;2.63;;;;;;;;;;10299582;28;20044;-67
2021/06/13 17:27:30;;;;;;;5.88;2.45;;;;;;;;;;10266867;28;20509;-67
2021/06/13 17:32:27;;;;;;;5.75;2.47;;;;;;;;;;10255534;28;20374;-67
2021/06/13 17:37:27;;;;;;;4.80;2.17;;;;;;;;;;10297588;28;20162;-66
2021/06/13 17:42:25;;;;;;;4.85;2.25;;;;;;;;;;10321448;28;20792;-66
2021/06/13 17:47:23;;;;;;;4.75;2.30;;;;;;;;;;10303463;28;21552;-67
2021/06/13 17:52:20;;;;;;;4.40;2.20;;;;;;;;;;10311485;28;20038;-67
2021/06/13 17:57:18;;;;;;;4.95;1.88;;;;;;;;;;10325169;28;20045;-67
2021/06/13 18:02:15;;;;;;;4.25;2.08;;;;;;;;;;10326741;28;20037;-65
2021/06/13 18:07:13;;;;;;;4.17;2.13;;;;;;;;;;10330114;28;20048;-66
2021/06/13 18:12:11;;;;;;;3.10;1.77;;;;;;;;;;10332697;28;20280;-67
2021/06/13 18:17:08;;;;;;;3.60;1.63;;;;;;;;;;10310835;28;20087;-67
2021/06/13 18:22:06;;;;;;;6.50;1.90;;;;;;;;;;10317016;28;20505;-66
2021/06/13 18:27:03;;;;;;;5.32;2.00;;;;;;;;;;10325485;28;20045;-66
2021/06/13 18:32:01;;;;;;;3.50;1.90;;;;;;;;;;10317998;28;20167;-66
2021/06/13 18:36:58;;;;;;;4.53;2.15;;;;;;;;;;10299870;28;20459;-66
2021/06/13 18:41:56;;;;;;;4.80;2.03;;;;;;;;;;10268839;28;20083;-67
2021/06/13 18:46:53;;;;;;;5.13;2.13;;;;;;;;;;10288927;28;20761;-67
2021/06/13 18:51:51;;;;;;;4.10;2.05;;;;;;;;;;10292223;28;20471;-66
2021/06/13 18:56:49;;;;;;;6.20;2.33;;;;;;;;;;10319076;28;20060;-66
2021/06/13 19:01:50;;;;;;;4.20;2.20;;;;;;;;;;10280103;28;20034;-67
2021/06/13 19:06:48;;;;;;;4.60;2.10;;;;;;;;;;10271483;28;20068;-66
2021/06/13 19:11:48;;;;;;;5.82;2.45;;;;;;;;;;10276526;28;20057;-66
2021/06/13 19:16:45;;;;;;;4.10;2.00;;;;;;;;;;10292655;28;20091;-67
2021/06/13 19:21:43;;;;;;;5.13;2.17;;;;;;;;;;10277959;28;20103;-66
2021/06/13 19:26:40;;;;;;;3.72;1.90;;;;;;;;;;10284088;28;20486;-66
2021/06/13 19:31:38;;;;;;;5.68;2.10;;;;;;;;;;10281166;28;20042;-66
2021/06/13 19:36:37;;;;;;;4.57;2.00;;;;;;;;;;10279806;28;20039;-66
2021/06/13 19:41:34;;;;;;;4.97;1.98;;;;;;;;;;10280812;28;20065;-66
2021/06/13 19:46:32;;;;;;;2.80;1.80;;;;;;;;;;10279303;28;20076;-65
2021/06/13 19:51:30;;;;;;;4.15;2.13;;;;;;;;;;10259677;28;20072;-66
2021/06/13 19:56:27;;;;;;;3.10;1.70;;;;;;;;;;10277996;28;20052;-66
2021/06/13 20:01:24;;;;;;;2.97;1.70;;;;;;;;;;10299737;28;20087;-66
2021/06/13 20:06:22;;;;;;;;;;;;;;;;;;10277794;28;20806;-66
2021/06/13 20:11:19;;;;;;;5.10;2.27;;;;;;;;;;10267841;28;19924;-66
2021/06/13 20:16:17;;;;;;;;;;;;;;;;;;10273830;28;20120;-67
2021/06/13 20:21:14;;;;;;;4.75;1.88;;;;;;;;;;10295485;28;20303;-68
2021/06/13 20:26:12;;;;;;;;;;;;;;;;;;10293220;28;20037;-68
2021/06/13 20:31:09;;;;;;;3.17;1.85;;;;;;;;;;10301162;28;19912;-68
2021/06/13 20:36:06;;;;;;;;;;;;;;;;;;10317990;28;20098;-68
2021/06/13 20:41:04;;;;;;;4.37;1.90;;;;;;;;;;10345806;28;19924;-68
2021/06/13 20:46:02;;;;;;;3.85;1.60;;;;;;;;;;10305513;28;20060;-68
2021/06/13 20:51:00;;;;;;;3.67;1.80;;;;;;;;;;10342758;28;20143;-68
2021/06/13 20:55:57;;;;;;;2.47;1.70;;;;;;;;;;10349248;28;20279;-68
2021/06/13 21:00:56;;;;;;;4.57;1.77;;;;;;;;;;10340328;28;20637;-69
2021/06/13 21:05:53;;;;;;;5.15;2.05;;;;;;;;;;10321331;28;20138;-68
2021/06/13 21:10:51;;;;;;;4.03;1.80;;;;;;;;;;10323671;28;20033;-69
2021/06/13 21:15:49;;;;;;;3.53;1.93;;;;;;;;;;10340619;28;20029;-68
2021/06/13 21:20:47;;;;;;;2.80;1.48;;;;;;;;;;10334823;28;20366;-68
2021/06/13 21:25:45;;;;;;;4.47;2.10;;;;;;;;;;10343548;28;20037;-67
2021/06/13 21:30:42;;;;;;;4.27;1.70;;;;;;;;;;10326440;28;20251;-67
2021/06/13 21:35:41;;;;;;;3.22;1.73;;;;;;;;;;10317256;28;20033;-67
2021/06/13 21:40:39;;;;;;;3.45;1.70;;;;;;;;;;10307146;28;20041;-67
2021/06/13 21:45:37;;;;;;;4.00;2.08;;;;;;;;;;10286270;28;20025;-68
2021/06/13 21:50:34;;;;;;;2.53;2.00;;;;;;;;;;10338917;28;20495;-68
2021/06/13 21:55:32;;;;;;;3.37;1.93;;;;;;;;;;10326683;28;20104;-68
2021/06/13 22:00:30;;;;;;;4.10;2.03;;;;;;;;;;10306591;28;20037;-66
2021/06/13 22:05:30;;;;;;;2.83;1.63;;;;;;;;;;10310404;28;21272;-68
2021/06/13 22:10:28;;;;;;;2.85;1.67;;;;;;;;;;10317822;28;20034;-67
2021/06/13 22:15:26;;;;;;;3.60;1.87;;;;;;;;;;10322404;28;20039;-67
2021/06/13 22:20:24;;;;;;;3.75;1.70;;;;;;;;;;10325838;28;20175;-67
2021/06/13 22:25:21;;;;;;;4.40;2.27;;;;;;;;;;10294177;28;20092;-67
2021/06/13 22:30:19;;;;;;;3.00;1.90;;;;;;;;;;10333358;28;20347;-67
2021/06/13 22:35:17;;;;;;;2.58;1.67;;;;;;;;;;10323375;28;20021;-67
2021/06/13 22:40:15;;;;;;;5.32;2.20;;;;;;;;;;10302816;28;20151;-67
2021/06/13 22:45:13;;;;;;;3.67;1.77;;;;;;;;;;10346539;28;20139;-68
2021/06/13 22:50:12;;;;;;;4.05;1.60;;;;;;;;;;10332317;28;20403;-67
2021/06/13 22:55:11;;;;;;;3.85;2.22;;;;;;;;;;10322522;28;20069;-66
2021/06/13 23:00:09;;;;;;;3.85;2.00;;;;;;;;;;10323865;28;20578;-66
2021/06/13 23:05:07;;;;;;;2.80;2.13;;;;;;;;;;10321958;28;20028;-67
2021/06/13 23:10:07;;;;;;;3.80;1.73;;;;;;;;;;10308956;28;20094;-69
2021/06/13 23:15:05;;;;;;;3.58;2.22;;;;;;;;;;10329868;28;20048;-67
2021/06/13 23:20:04;;;;;;;4.18;2.05;;;;;;;;;;10319334;28;20037;-67
2021/06/13 23:25:02;;;;;;;3.40;2.10;;;;;;;;;;10313410;28;20037;-67
2021/06/13 23:30:00;;;;;;;3.55;1.83;;;;;;;;;;10334084;28;20041;-66
2021/06/13 23:34:58;;;;;;;4.78;2.10;;;;;;;;;;10342438;28;20033;-66
2021/06/13 23:39:55;;;;;;;4.80;2.30;;;;;;;;;;10325040;28;20045;-68
2021/06/13 23:44:52;;;;;;;3.77;1.97;;;;;;;;;;10314435;28;20025;-67
2021/06/13 23:49:50;;;;;;;3.10;2.00;;;;;;;;;;10341733;28;20049;-67
2021/06/13 23:54:47;;;;;;;2.93;2.10;;;;;;;;;;10301805;28;20037;-66
2021/06/13 23:59:45;;;;;;;4.40;2.13;;;;;;;;;;10325006;28;20435;-66
